메인 페이지
METAR-TAF:

METAR-TAF

공항 :

로턴, 오클라호마, 미국

위도: 34-33-27N, 경도: 098-25-00W, 고도: 338m

현재 날씨관측

예보는 45분 전, 13:53시(UTC)에 발표되었습니다.
4kt
온도 23°C
습도 65%
기압 1023 hPa
시정: 16.1km
맑음

METAR: KLAW 291353Z 36004KT 10SM CLR 23/16 A3021 RMK AO2 SLP218 T02330161

시각: 09:38 (14:38 UTC)

예보

예보는 3 시간 18분 전, 11:20시(UTC)에 발표되었습니다.
예보 대상 시간: 29일 12시부터 30일 12시까지 (UTC)
북북서5kt
시정: 10km
맑음
29일 1600시부터 (UTC)
동북동7kt
시정: 10km
고도 25000ft 상공 구름 조금
29일 2300시부터 (UTC)
6kt
시정: 10km
맑음

TAF: KLAW 291120Z 2912/3012 34005KT P6SM SKC FM291600 06007KT P6SM FEW250 FM292300 09006KT P6SM SKC

4,000개 이상의 공항 관측 자료 및 예보 (METAR 및 TAF 보고).

지도상에서 검색 가능한 기상관측소가 노란 점과 빨간 점으로 표시되어 있습니다.

기상관측소 명을 보려면 표시 위로 마우스를 이동하세요.

날씨 관측과 예보를 보려면 클릭하세요.

지도 변경 : 확대하려면 엑스 표시가 있는 녹색 버튼, 축소하려면 빼기 표시가 있는 녹색 버튼, 다음 페이지의 지도를 보려면 녹색 화살표를 클릭하세요.


METAR-TAF: